This is the latest recevied weather packets stored in our database for station/object KG5MMT-15. If no packets are shown the sender has not sent any weather packets the latest 10 day(s).
| Time | Temp. | Humidity | Pressure | Rain* | Wind** | Luminosity | Snow |
|---|---|---|---|---|---|---|---|
| 1788069175 | 20.56° C | 54% | 0 hPa | 0 mm | - | - | - |
| 1788068875 | 21.11° C | 51% | 0 hPa | 0 mm | - | - | - |
| 1788068576 | 21.67° C | 50% | 0 hPa | 0 mm | - | - | - |
| 1788068276 | 21.67° C | 47% | 0 hPa | 0 mm | - | - | - |
| 1788067976 | 21.67° C | 46% | 0 hPa | 0 mm | - | - | - |
| 1788067676 | 21.67° C | 47% | 0 hPa | 0 mm | - | - | - |
| 1788067376 | 21.67° C | 48% | 0 hPa | 0 mm | - | - | - |
| 1788067076 | 21.67° C | 45% | 0 hPa | 0 mm | - | - | - |
| 1788066776 | 21.67° C | 47% | 0 hPa | 0 mm | - | - | - |
| 1788066475 | 22.22° C | 44% | 0 hPa | 0 mm | - | - | - |
| 1788066176 | 22.78° C | 44% | 0 hPa | 0 mm | - | - | - |
| 1788065876 | 22.78° C | 43% | 0 hPa | 0 mm | - | - | - |
| 1788065576 | 22.78° C | 43% | 0 hPa | 0 mm | - | - | - |
| 1788065276 | 22.78° C | 43% | 0 hPa | 0 mm | - | - | - |
| 1788064976 | 22.78° C | 43% | 0 hPa | 0 mm | - | - | - |
| 1788064676 | 22.78° C | 43% | 0 hPa | 0 mm | - | - | - |
| 1788064376 | 22.78° C | 42% | 0 hPa | 0 mm | - | - | - |
| 1788064076 | 22.22° C | 43% | 0 hPa | 0 mm | - | - | - |
| 1788063776 | 22.22° C | 44% | 0 hPa | 0 mm | - | - | - |
| 1788063476 | 21.67° C | 46% | 0 hPa | 0 mm | - | - | - |
| 1788063176 | 21.11° C | 47% | 0 hPa | 0 mm | - | - | - |
| 1788062876 | 20.56° C | 51% | 0 hPa | 0 mm | - | - | - |
| 1788062576 | 20° C | 55% | 0 hPa | 0 mm | - | - | - |
| 1788062276 | 19.44° C | 60% | 0 hPa | 0 mm | - | - | - |
| 1788061976 | 19.44° C | 60% | 0 hPa | 0 mm | - | - | - |
* Rain latest hour (hover to see other rain measurements)
** Current wind speed in m/s (hover to see current wind gust speed)